Time;durP1;ratioP1;P1;durP2;ratioP2;P2;SDS_P1;SDS_P2;PMS_P1;PMS_P2;Temp;Humidity;BMP_temperature;BMP_pressure;BME280_temperature;BME280_humidity;BME280_pressure;Samples;Min_cycle;Max_cycle;Signal;HPM_P1;HPM_P2
2024/02/25 00:00:03;;;;;;;3.92;1.42;;;;;;;4.11;100.00;68842.28;5073007;28;20045;-52
2024/02/25 00:02:34;;;;;;;2.95;1.30;;;;;;;4.12;100.00;68843.44;5072325;28;20060;-48
2024/02/25 00:05:02;;;;;;;3.45;1.42;;;;;;;4.19;100.00;68849.56;5071841;28;20068;-50
2024/02/25 00:07:32;;;;;;;5.35;1.50;;;;;;;4.17;100.00;68847.25;5070836;28;20483;-48
2024/02/25 00:10:00;;;;;;;4.38;1.63;;;;;;;4.13;100.00;68840.03;5075035;28;20048;-51
2024/02/25 00:12:28;;;;;;;3.15;1.40;;;;;;;4.17;100.00;68849.84;5070650;28;20508;-51
2024/02/25 00:14:56;;;;;;;4.38;1.55;;;;;;;4.12;100.00;68844.03;5071343;28;20408;-49
2024/02/25 00:17:25;;;;;;;4.20;1.27;;;;;;;4.05;100.00;68833.31;5071978;28;20057;-49
2024/02/25 00:19:53;;;;;;;2.53;1.35;;;;;;;4.14;100.00;68843.75;5072074;28;20059;-49
2024/02/25 00:22:21;;;;;;;3.63;1.33;;;;;;;4.13;100.00;68847.78;5073362;28;20043;-48
2024/02/25 00:24:50;;;;;;;3.25;1.30;;;;;;;4.10;100.00;68844.28;5073521;28;20044;-60
2024/02/25 00:27:19;;;;;;;1.90;1.17;;;;;;;4.07;100.00;68835.63;5074724;28;20098;-59
2024/02/25 00:29:48;;;;;;;3.63;1.20;;;;;;;4.09;100.00;68837.97;5075228;28;20075;-60
2024/02/25 00:32:16;;;;;;;4.18;1.50;;;;;;;4.07;100.00;68838.78;5073851;28;20102;-59
2024/02/25 00:34:44;;;;;;;5.95;1.17;;;;;;;4.16;100.00;68848.06;5073942;28;20424;-60
2024/02/25 00:37:13;;;;;;;3.50;1.23;;;;;;;4.18;100.00;68848.41;5073392;28;20094;-60
2024/02/25 00:39:41;;;;;;;2.67;1.10;;;;;;;4.16;100.00;68850.66;5074209;28;20407;-61
2024/02/25 00:42:10;;;;;;;3.40;1.10;;;;;;;4.18;100.00;68850.41;5075126;28;20040;-60
2024/02/25 00:44:39;;;;;;;3.13;1.17;;;;;;;4.16;100.00;68851.25;5072210;28;20048;-61
2024/02/25 00:47:08;;;;;;;2.50;1.27;;;;;;;4.16;100.00;68848.66;5073520;28;20044;-59
2024/02/25 00:49:36;;;;;;;4.90;1.25;;;;;;;4.13;100.00;68842.59;5074655;28;20055;-61
2024/02/25 00:52:07;;;;;;;3.67;1.20;;;;;;;4.17;100.00;68847.25;5074513;28;20044;-61
2024/02/25 00:54:37;;;;;;;2.90;1.40;;;;;;;4.17;100.00;68847.25;5073511;28;20450;-61
2024/02/25 00:57:05;;;;;;;8.10;1.42;;;;;;;4.16;100.00;68848.06;5072551;28;20056;-61
2024/02/25 00:59:35;;;;;;;4.75;1.88;;;;;;;4.12;100.00;68843.44;5072966;28;20090;-59
2024/02/25 01:02:03;;;;;;;5.75;2.13;;;;;;;4.07;100.00;68838.22;5072671;28;20056;-60
2024/02/25 01:04:31;;;;;;;5.80;1.73;;;;;;;4.06;100.00;68840.22;5073750;28;20045;-60
2024/02/25 01:06:59;;;;;;;6.85;2.15;;;;;;;4.10;100.00;68841.69;5071886;28;20562;-60
2024/02/25 01:09:27;;;;;;;5.38;1.95;;;;;;;4.12;100.00;68841.44;5072846;28;20044;-60
2024/02/25 01:11:55;;;;;;;5.55;2.25;;;;;;;4.10;100.00;68841.69;5074221;28;20052;-60
2024/02/25 01:14:26;;;;;;;4.55;1.90;;;;;;;4.06;100.00;68837.66;5073217;28;20041;-59
2024/02/25 01:16:56;;;;;;;5.22;2.13;;;;;;;4.10;100.00;68838.53;5074186;28;20110;-61
2024/02/25 01:19:24;;;;;;;4.53;1.85;;;;;;;4.09;100.00;68834.78;5074171;28;20072;-60
2024/02/25 01:21:53;;;;;;;4.72;2.15;;;;;;;4.06;100.00;68837.06;5072405;28;20052;-60
2024/02/25 01:24:21;;;;;;;6.13;1.98;;;;;;;4.07;100.00;68841.38;5072248;28;20045;-59
2024/02/25 01:26:49;;;;;;;3.83;1.42;;;;;;;4.07;100.00;68838.78;5072091;28;20052;-60
2024/02/25 01:29:17;;;;;;;4.65;1.80;;;;;;;4.01;100.00;68831.25;5071480;28;20045;-60
2024/02/25 01:31:46;;;;;;;3.20;1.60;;;;;;;4.09;100.00;68834.78;5072163;28;20045;-60
2024/02/25 01:34:15;;;;;;;3.33;1.52;;;;;;;4.08;100.00;68836.81;5072358;28;20044;-59
2024/02/25 01:36:45;;;;;;;3.83;1.42;;;;;;;4.04;100.00;68832.72;5072157;28;20046;-60
2024/02/25 01:39:13;;;;;;;3.28;1.50;;;;;;;4.04;100.00;68834.75;5071466;28;20048;-60
2024/02/25 01:41:41;;;;;;;4.65;1.40;;;;;;;3.98;100.00;68830.34;5071673;28;20106;-60
2024/02/25 01:44:11;;;;;;;4.13;1.73;;;;;;;3.98;100.00;68825.78;5071072;28;20062;-59
2024/02/25 01:46:40;;;;;;;5.05;2.05;;;;;;;3.97;100.00;68829.78;5071630;28;20044;-60
2024/02/25 01:49:10;;;;;;;5.55;1.67;;;;;;;3.91;100.00;68820.22;5071200;28;20044;-59
2024/02/25 01:51:41;;;;;;;3.25;2.03;;;;;;;3.88;100.00;68814.16;5071263;28;20443;-61
2024/02/25 01:54:09;;;;;;;6.18;1.77;;;;;;;3.86;100.00;68812.41;5070705;28;20373;-59
2024/02/25 01:56:38;;;;;;;5.82;1.80;;;;;;;3.95;100.00;68821.69;5070601;28;20055;-59
2024/02/25 01:59:07;;;;;;;5.30;1.70;;;;;;;3.89;100.00;68815.31;5069130;28;20052;-60
2024/02/25 02:01:35;;;;;;;4.30;1.90;;;;;;;3.88;100.00;68816.75;5070525;28;20605;-59
2024/02/25 02:04:04;;;;;;;7.63;2.13;;;;;;;3.86;100.00;68817.59;5070283;28;20040;-59
2024/02/25 02:06:32;;;;;;;4.47;1.75;;;;;;;3.88;100.00;68816.75;5071049;28;20357;-59
2024/02/25 02:09:15;;;;;;;5.43;1.73;;;;;;;3.91;100.00;68817.06;5072947;28;20110;-59
2024/02/25 02:11:56;;;;;;;5.22;1.63;;;;;;;3.89;100.00;68818.47;5071553;28;20411;-60
2024/02/25 02:14:25;;;;;;;5.78;1.73;;;;;;;3.89;100.00;68815.91;5072862;28;20480;-60
2024/02/25 02:16:53;;;;;;;2.72;1.60;;;;;;;3.91;100.00;68822.22;5069357;28;20529;-59
2024/02/25 02:19:21;;;;;;;3.65;1.50;;;;;;;3.94;100.00;68823.72;5071086;28;20550;-59
2024/02/25 02:21:54;;;;;;;4.20;1.83;;;;;;;3.93;100.00;68819.38;5072555;28;20558;-59
2024/02/25 02:24:22;;;;;;;4.55;1.85;;;;;;;3.97;100.00;68824.03;5070493;28;20048;-61
2024/02/25 02:26:50;;;;;;;4.93;2.00;;;;;;;3.97;100.00;68826.63;5069550;28;20082;-60
2024/02/25 02:29:18;;;;;;;5.22;2.15;;;;;;;4.01;100.00;68828.69;5069277;28;20122;-60
2024/02/25 02:31:46;;;;;;;6.15;2.40;;;;;;;3.99;100.00;68826.34;5072709;28;20083;-59
2024/02/25 02:34:14;;;;;;;4.88;2.10;;;;;;;3.97;100.00;68827.19;5072849;28;20037;-60
2024/02/25 02:36:43;;;;;;;4.95;1.95;;;;;;;3.99;100.00;68829.50;5069535;28;20040;-60
2024/02/25 02:39:12;;;;;;;5.63;1.70;;;;;;;3.97;100.00;68824.59;5069220;28;20110;-59
2024/02/25 02:41:40;;;;;;;4.20;1.90;;;;;;;3.96;100.00;68828.59;5069637;28;20135;-59
2024/02/25 02:44:09;;;;;;;4.57;1.88;;;;;;;3.99;100.00;68831.50;5068518;28;20049;-59
2024/02/25 02:46:40;;;;;;;7.13;2.03;;;;;;;4.01;100.00;68829.25;5070174;28;20048;-60
2024/02/25 02:49:08;;;;;;;4.38;1.85;;;;;;;4.00;100.00;68830.09;5069633;28;20052;-60
2024/02/25 02:51:36;;;;;;;4.85;2.05;;;;;;;4.01;100.00;68831.84;5068165;28;20454;-60
2024/02/25 02:54:08;;;;;;;4.40;1.70;;;;;;;4.02;100.00;68835.00;5072294;28;20036;-59
2024/02/25 02:56:38;;;;;;;4.03;1.80;;;;;;;4.04;100.00;68832.16;5074037;28;20076;-60
2024/02/25 02:59:06;;;;;;;5.72;2.00;;;;;;;4.02;100.00;68830.41;5074882;28;20049;-60
2024/02/25 03:01:34;;;;;;;6.05;2.72;;;;;;;4.08;100.00;68836.81;5076466;28;20105;-60
2024/02/25 03:04:02;;;;;;;4.35;2.00;;;;;;;4.01;100.00;68831.84;5076270;28;20071;-60
2024/02/25 03:06:30;;;;;;;5.65;2.22;;;;;;;4.09;100.00;68839.97;5076085;28;20458;-60
2024/02/25 03:08:59;;;;;;;3.45;1.75;;;;;;;4.03;100.00;68831.56;5075440;28;20047;-59
2024/02/25 03:11:30;;;;;;;6.03;1.90;;;;;;;4.04;100.00;68830.16;5077486;28;20119;-59
2024/02/25 03:14:02;;;;;;;4.95;1.50;;;;;;;4.11;100.00;68845.44;5077038;28;20313;-60
2024/02/25 03:16:30;;;;;;;2.35;1.35;;;;;;;4.11;100.00;68842.28;5076016;28;20056;-61
2024/02/25 03:18:58;;;;;;;4.10;1.60;;;;;;;4.08;100.00;68839.38;5078119;28;20106;-59
2024/02/25 03:21:27;;;;;;;2.03;1.48;;;;;;;4.07;100.00;68841.38;5076362;28;20072;-59
2024/02/25 03:23:55;;;;;;;5.15;1.80;;;;;;;4.12;100.00;68838.25;5075327;28;20052;-59
2024/02/25 03:26:23;;;;;;;4.47;1.50;;;;;;;4.12;100.00;68844.03;5074781;28;20400;-59
2024/02/25 03:28:52;;;;;;;3.83;1.50;;;;;;;4.14;100.00;68845.75;5077016;28;20455;-61
2024/02/25 03:31:23;;;;;;;4.05;1.65;;;;;;;4.14;100.00;68841.16;5078860;28;20106;-61
2024/02/25 03:33:51;;;;;;;3.75;1.42;;;;;;;4.16;100.00;68846.09;5078493;28;20511;-59
2024/02/25 03:36:20;;;;;;;2.58;1.48;;;;;;;4.19;100.00;68851.56;5076379;28;20516;-60
2024/02/25 03:38:48;;;;;;;2.90;1.45;;;;;;;4.19;100.00;68849.56;5076340;28;20044;-60
2024/02/25 03:41:16;;;;;;;4.47;1.80;;;;;;;4.18;100.00;68850.97;5078373;28;20049;-60
2024/02/25 03:43:45;;;;;;;3.25;1.40;;;;;;;4.20;100.00;68850.72;5077017;28;20054;-60
2024/02/25 03:46:13;;;;;;;4.35;1.58;;;;;;;4.18;100.00;68850.41;5078195;28;20048;-60
2024/02/25 03:48:43;;;;;;;4.88;1.42;;;;;;;4.21;100.00;68854.47;5075659;28;20144;-60
2024/02/25 03:51:11;;;;;;;3.15;1.50;;;;;;;4.20;100.00;68847.56;5074081;28;20049;-59
2024/02/25 03:53:39;;;;;;;2.85;1.60;;;;;;;4.23;100.00;68856.78;5075783;28;20484;-59
2024/02/25 03:56:07;;;;;;;3.78;1.63;;;;;;;4.25;100.00;68857.97;5075633;28;20036;-61
2024/02/25 03:58:35;;;;;;;3.08;1.45;;;;;;;4.25;100.00;68852.78;5074537;28;20052;-59
2024/02/25 04:01:06;;;;;;;1.70;1.30;;;;;;;4.25;100.00;68861.13;5075405;28;20055;-59
2024/02/25 04:03:34;;;;;;;2.83;1.63;;;;;;;4.26;100.00;68853.97;5075777;28;20122;-60
2024/02/25 04:06:04;;;;;;;3.22;1.60;;;;;;;4.23;100.00;68859.38;5075474;28;20090;-59
2024/02/25 04:08:32;;;;;;;3.40;1.60;;;;;;;4.27;100.00;68860.88;5074393;28;20579;-59
2024/02/25 04:11:02;;;;;;;2.90;1.42;;;;;;;4.30;100.00;68861.75;5074932;28;20098;-59
2024/02/25 04:13:30;;;;;;;2.85;1.50;;;;;;;4.31;100.00;68864.91;5071108;28;20461;-59
2024/02/25 04:15:58;;;;;;;2.92;1.40;;;;;;;4.28;100.00;68858.84;5071879;28;20047;-59
2024/02/25 04:18:26;;;;;;;2.35;1.50;;;;;;;4.26;100.00;68859.13;5073237;28;20076;-60
2024/02/25 04:20:57;;;;;;;3.08;1.42;;;;;;;4.28;100.00;68858.84;5072439;28;20044;-60
2024/02/25 04:23:27;;;;;;;2.22;1.10;;;;;;;4.28;100.00;68856.28;5074434;28;20060;-50
2024/02/25 04:25:55;;;;;;;3.15;1.30;;;;;;;4.28;100.00;68862.03;5073867;28;20049;-50
2024/02/25 04:28:23;;;;;;;3.28;1.30;;;;;;;4.25;100.00;68858.53;5070368;28;20040;-49
2024/02/25 04:30:51;;;;;;;1.98;1.38;;;;;;;4.27;100.00;68858.28;5072930;28;20403;-49
2024/02/25 04:33:19;;;;;;;1.98;1.40;;;;;;;4.25;100.00;68861.13;5073583;28;20076;-48
2024/02/25 04:35:48;;;;;;;3.72;1.50;;;;;;;4.31;100.00;68862.91;5074729;28;20043;-50
2024/02/25 04:38:16;;;;;;;3.72;1.50;;;;;;;4.28;100.00;68858.84;5074792;28;20094;-47
2024/02/25 04:40:52;;;;;;;2.20;1.38;;;;;;;4.27;100.00;68860.25;5074823;28;20395;-50
2024/02/25 04:43:20;;;;;;;1.85;1.30;;;;;;;4.30;100.00;68861.19;5074668;28;20051;-49
2024/02/25 04:45:48;;;;;;;2.17;1.20;;;;;;;4.30;100.00;68866.91;5072791;28;20454;-50
2024/02/25 04:48:16;;;;;;;2.20;1.40;;;;;;;4.31;100.00;68864.91;5071576;28;20097;-48
2024/02/25 04:50:45;;;;;;;2.28;1.20;;;;;;;4.31;100.00;68862.91;5073849;28;20131;-50
2024/02/25 04:53:13;;;;;;;2.15;1.38;;;;;;;4.28;100.00;68858.84;5069363;28;20441;-51
2024/02/25 04:55:41;;;;;;;2.22;1.17;;;;;;;4.32;100.00;68866.06;5070673;28;20044;-50
2024/02/25 04:58:10;;;;;;;1.65;1.20;;;;;;;4.30;100.00;68861.75;5068659;28;20056;-48
2024/02/25 05:00:39;;;;;;;2.90;1.30;;;;;;;4.33;100.00;68869.81;5070980;28;20461;-48
2024/02/25 05:03:07;;;;;;;2.33;1.25;;;;;;;4.34;100.00;68865.81;5069730;28;20052;-49
2024/02/25 05:05:35;;;;;;;4.00;1.52;;;;;;;4.36;100.00;68866.16;5071522;28;20495;-48
2024/02/25 05:08:04;;;;;;;1.92;1.20;;;;;;;4.34;100.00;68865.81;5070345;28;20048;-51
2024/02/25 05:10:32;;;;;;;1.95;1.30;;;;;;;4.30;100.00;68861.19;5070865;28;20056;-49
2024/02/25 05:13:01;;;;;;;1.45;1.23;;;;;;;4.31;100.00;68862.31;5068864;28;20055;-48
2024/02/25 05:15:30;;;;;;;2.00;1.40;;;;;;;4.28;100.00;68856.88;5068963;28;20051;-50
2024/02/25 05:17:58;;;;;;;3.55;1.40;;;;;;;4.27;100.00;68860.88;5070302;28;20408;-50
2024/02/25 05:20:27;;;;;;;3.60;1.20;;;;;;;4.28;100.00;68859.44;5070697;28;20056;-52
2024/02/25 05:22:55;;;;;;;2.38;1.48;;;;;;;4.33;100.00;68865.22;5069776;28;20052;-52
2024/02/25 05:25:23;;;;;;;2.72;1.58;;;;;;;4.30;100.00;68858.59;5072342;28;20435;-51
2024/02/25 05:27:51;;;;;;;3.45;1.48;;;;;;;4.28;100.00;68861.44;5073891;28;20515;-49
2024/02/25 05:30:20;;;;;;;4.40;1.67;;;;;;;4.26;100.00;68861.72;5074006;28;20061;-49
2024/02/25 05:32:49;;;;;;;3.85;1.80;;;;;;;4.21;100.00;68851.31;5072742;28;20044;-52
2024/02/25 05:35:17;;;;;;;4.13;1.70;;;;;;;4.25;100.00;68855.38;5070298;28;20048;-53
2024/02/25 05:37:45;;;;;;;3.75;1.77;;;;;;;4.20;100.00;68855.31;5069900;28;20170;-51
2024/02/25 05:40:14;;;;;;;2.85;1.65;;;;;;;4.21;100.00;68856.47;5070493;28;20098;-49
2024/02/25 05:42:42;;;;;;;4.43;1.83;;;;;;;4.20;100.00;68850.16;5069295;28;20068;-53
2024/02/25 05:45:11;;;;;;;3.33;1.90;;;;;;;4.19;100.00;68849.56;5071268;28;20051;-48
2024/02/25 05:47:42;;;;;;;;;;;;;;;4.26;100.00;68856.53;5070363;28;20051;-51
2024/02/25 05:50:12;;;;;;;2.55;1.60;;;;;;;4.25;100.00;68857.97;5069691;28;19920;-52
2024/02/25 05:52:42;;;;;;;4.93;1.50;;;;;;;4.25;100.00;68855.94;5071963;28;20052;-54
2024/02/25 05:55:10;;;;;;;3.20;1.70;;;;;;;4.26;100.00;68856.53;5072850;28;20141;-50
2024/02/25 05:57:38;;;;;;;4.40;1.83;;;;;;;4.24;100.00;68857.38;5072009;28;20817;-53
2024/02/25 06:00:10;;;;;;;2.85;1.80;;;;;;;4.20;100.00;68850.72;5069539;28;20044;-51
2024/02/25 06:02:39;;;;;;;3.53;2.13;;;;;;;4.25;100.00;68857.97;5071587;28;20052;-49
2024/02/25 06:05:13;;;;;;;3.47;1.80;;;;;;;4.28;100.00;68864.59;5072873;28;20075;-49
2024/02/25 06:07:43;;;;;;;5.47;2.10;;;;;;;4.23;100.00;68856.22;5068008;28;20072;-51
2024/02/25 06:10:11;;;;;;;5.82;1.95;;;;;;;4.21;100.00;68851.31;5069450;28;20515;-48
2024/02/25 06:12:40;;;;;;;3.97;1.90;;;;;;;4.21;100.00;68851.31;5068988;28;20147;-50
2024/02/25 06:15:12;;;;;;;3.88;2.30;;;;;;;4.21;100.00;68857.06;5068960;28;20043;-50
2024/02/25 06:17:41;;;;;;;3.20;1.92;;;;;;;4.17;100.00;68849.84;5069439;28;20118;-51
2024/02/25 06:20:11;;;;;;;3.50;1.90;;;;;;;4.20;100.00;68845.00;5071964;28;20040;-49
2024/02/25 06:22:42;;;;;;;3.63;2.20;;;;;;;4.18;100.00;68848.41;5072333;28;20044;-49
2024/02/25 06:25:11;;;;;;;4.28;2.33;;;;;;;4.18;100.00;68847.81;5069075;28;20055;-53
2024/02/25 06:27:43;;;;;;;4.90;2.60;;;;;;;4.16;100.00;68848.06;5068044;28;20502;-53
2024/02/25 06:30:12;;;;;;;5.30;2.58;;;;;;;4.16;100.00;68846.09;5068774;28;20044;-51
2024/02/25 06:32:40;;;;;;;5.78;2.63;;;;;;;4.15;100.00;68847.50;5069249;28;20101;-52
2024/02/25 06:35:13;;;;;;;4.03;2.22;;;;;;;4.19;100.00;68849.56;5069342;28;20048;-50
2024/02/25 06:37:42;;;;;;;4.63;2.55;;;;;;;4.16;100.00;68846.09;5067261;28;20080;-52
2024/02/25 06:40:11;;;;;;;5.50;2.50;;;;;;;4.18;100.00;68848.41;5070794;28;20113;-53
2024/02/25 06:42:40;;;;;;;5.18;2.70;;;;;;;4.21;100.00;68851.91;5069309;28;20055;-54
2024/02/25 06:45:09;;;;;;;4.55;2.42;;;;;;;4.22;100.00;68852.47;5067277;28;20049;-52
2024/02/25 06:47:37;;;;;;;4.55;2.85;;;;;;;4.23;100.00;68856.78;5068977;28;20055;-52
2024/02/25 06:50:08;;;;;;;6.90;3.30;;;;;;;4.24;100.00;68857.38;5068929;28;20045;-50
2024/02/25 06:52:37;;;;;;;6.30;3.10;;;;;;;4.23;100.00;68851.06;5068894;28;20678;-52
2024/02/25 06:55:09;;;;;;;6.40;2.72;;;;;;;4.22;100.00;68858.22;5071194;28;20041;-51
2024/02/25 06:57:37;;;;;;;7.10;2.97;;;;;;;4.22;100.00;68857.63;5067953;28;20084;-52
2024/02/25 07:00:07;;;;;;;5.00;3.10;;;;;;;4.19;100.00;68854.16;5068358;28;20479;-51
2024/02/25 07:02:37;;;;;;;6.38;3.60;;;;;;;4.19;100.00;68849.56;5068998;28;20052;-52
2024/02/25 07:05:06;;;;;;;7.05;3.20;;;;;;;4.21;100.00;68851.91;5068662;28;20132;-52
2024/02/25 07:07:34;;;;;;;7.40;3.75;;;;;;;4.19;100.00;68851.56;5068116;28;20048;-50
2024/02/25 07:10:02;;;;;;;5.88;3.38;;;;;;;4.19;100.00;68854.16;5068449;28;20499;-49
2024/02/25 07:12:32;;;;;;;7.72;4.05;;;;;;;4.18;100.00;68853.56;5070948;28;20496;-53
2024/02/25 07:15:00;;;;;;;6.63;3.50;;;;;;;4.19;100.00;68849.56;5067706;28;20045;-51
2024/02/25 07:17:28;;;;;;;7.40;3.63;;;;;;;4.21;100.00;68851.91;5068265;28;20048;-51
2024/02/25 07:19:56;;;;;;;6.60;3.75;;;;;;;4.23;100.00;68853.63;5070660;28;20049;-51
2024/02/25 07:22:24;;;;;;;6.43;3.38;;;;;;;4.24;100.00;68854.81;5068577;28;20124;-53
2024/02/25 07:24:53;;;;;;;8.60;4.00;;;;;;;4.26;100.00;68859.69;5068537;28;20048;-53
2024/02/25 07:27:24;;;;;;;6.43;4.00;;;;;;;4.28;100.00;68859.44;5070095;28;20447;-51
2024/02/25 07:29:53;;;;;;;6.68;3.90;;;;;;;4.31;100.00;68859.75;5067841;28;20137;-48
2024/02/25 07:32:24;;;;;;;7.53;3.78;;;;;;;4.37;100.00;68867.28;5068972;28;20044;-50
2024/02/25 07:34:53;;;;;;;6.72;4.00;;;;;;;4.39;100.00;68871.63;5068199;28;20082;-49
2024/02/25 07:37:21;;;;;;;7.03;4.05;;;;;;;4.40;100.00;68872.78;5067821;28;20127;-52
2024/02/25 07:39:52;;;;;;;7.25;4.18;;;;;;;4.38;100.00;68871.03;5067741;28;20044;-53
2024/02/25 07:42:20;;;;;;;8.80;4.32;;;;;;;4.41;100.00;68873.94;5069820;28;20139;-51
2024/02/25 07:44:48;;;;;;;6.45;4.05;;;;;;;4.44;100.00;68874.28;5069881;28;20491;-51
2024/02/25 07:47:18;;;;;;;10.93;4.30;;;;;;;4.47;100.00;68883.50;5071728;28;20041;-52
2024/02/25 07:49:46;;;;;;;8.15;4.05;;;;;;;4.49;100.00;68883.25;5072246;28;20040;-49
2024/02/25 07:52:14;;;;;;;7.35;3.85;;;;;;;4.56;100.00;68895.97;5075124;28;20052;-52
2024/02/25 07:54:42;;;;;;;6.28;3.58;;;;;;;4.55;100.00;68892.81;5075344;28;20132;-51
2024/02/25 07:57:10;;;;;;;6.45;3.70;;;;;;;4.60;100.00;68894.88;5073690;28;20370;-49
2024/02/25 07:59:39;;;;;;;6.45;3.17;;;;;;;4.64;100.00;68902.09;5072987;28;20072;-49
2024/02/25 08:02:07;;;;;;;6.25;3.30;;;;;;;4.67;100.00;68903.00;5071901;28;20052;-50
2024/02/25 08:04:37;;;;;;;7.25;3.58;;;;;;;4.69;100.00;68902.72;5074988;28;20071;-48
2024/02/25 08:07:06;;;;;;;7.57;3.58;;;;;;;4.72;100.00;68906.22;5073381;28;20041;-49
2024/02/25 08:09:34;;;;;;;7.90;3.97;;;;;;;4.74;100.00;68914.28;5072216;28;20047;-50
2024/02/25 08:12:03;;;;;;;5.97;3.50;;;;;;;4.77;100.00;68919.75;5070860;28;20448;-52
2024/02/25 08:14:31;;;;;;;6.82;3.50;;;;;;;4.79;100.00;68916.94;5070567;28;20059;-49
2024/02/25 08:16:59;;;;;;;6.68;3.58;;;;;;;4.78;100.00;68917.78;5070689;28;20118;-49
2024/02/25 08:19:30;;;;;;;7.53;3.90;;;;;;;4.80;100.00;68923.25;5071829;28;20049;-51
2024/02/25 08:21:59;;;;;;;7.43;3.78;;;;;;;4.87;100.00;68925.66;5070997;28;20048;-52
2024/02/25 08:24:27;;;;;;;6.70;3.85;;;;;;;4.85;100.00;68925.91;5073389;28;20048;-48
2024/02/25 08:26:56;;;;;;;6.90;4.10;;;;;;;4.86;100.00;68916.72;5071556;28;20040;-51
2024/02/25 08:29:24;;;;;;;6.85;3.88;;;;;;;4.86;100.00;68924.47;5070463;28;20056;-49
2024/02/25 08:31:52;;;;;;;6.18;3.80;;;;;;;4.78;100.00;68920.94;5072504;28;20080;-48
2024/02/25 08:34:20;;;;;;;7.75;4.18;;;;;;;4.79;100.00;68918.94;5071439;28;20058;-50
2024/02/25 08:36:48;;;;;;;7.30;4.22;;;;;;;4.77;100.00;68914.59;5069380;28;20403;-47
2024/02/25 08:39:19;;;;;;;6.95;4.15;;;;;;;4.68;100.00;68907.31;5070856;28;20043;-49
2024/02/25 08:41:47;;;;;;;8.95;3.95;;;;;;;4.71;100.00;68910.78;5070697;28;20072;-49
2024/02/25 08:44:16;;;;;;;6.55;4.00;;;;;;;4.72;100.00;68908.81;5069645;28;20124;-48
2024/02/25 08:46:44;;;;;;;6.93;3.95;;;;;;;4.72;100.00;68909.38;5070806;28;20062;-48
2024/02/25 08:49:12;;;;;;;7.97;4.10;;;;;;;4.75;100.00;68912.28;5071253;28;20048;-49
2024/02/25 08:51:41;;;;;;;7.25;3.22;;;;;;;4.70;100.00;68907.06;5071848;28;20056;-60
2024/02/25 08:54:09;;;;;;;7.55;3.53;;;;;;;4.74;100.00;68911.72;5071854;28;20048;-59
2024/02/25 08:56:38;;;;;;;6.53;3.78;;;;;;;4.72;100.00;68908.81;5072493;28;20048;-60
2024/02/25 08:59:06;;;;;;;6.05;3.33;;;;;;;4.76;100.00;68913.44;5071704;28;20134;-60
2024/02/25 09:01:38;;;;;;;7.95;3.60;;;;;;;4.81;100.00;68919.22;5070895;28;20137;-60
2024/02/25 09:04:06;;;;;;;6.57;3.33;;;;;;;4.82;100.00;68920.41;5070462;28;20496;-61
2024/02/25 09:06:37;;;;;;;6.30;3.78;;;;;;;4.78;100.00;68915.75;5070570;28;20037;-60
2024/02/25 09:09:06;;;;;;;5.65;3.28;;;;;;;4.83;100.00;68923.59;5071463;28;20056;-60
2024/02/25 09:11:34;;;;;;;6.97;3.45;;;;;;;4.83;100.00;68921.56;5072553;28;20052;-60
2024/02/25 09:14:03;;;;;;;9.07;4.15;;;;;;;4.85;100.00;68923.31;5074173;28;20049;-61
2024/02/25 09:16:31;;;;;;;7.18;3.70;;;;;;;4.88;100.00;68929.97;5072150;28;20052;-60
2024/02/25 09:19:02;;;;;;;7.70;4.20;;;;;;;4.90;100.00;68929.69;5071381;28;20049;-60
2024/02/25 09:21:31;;;;;;;5.93;3.78;;;;;;;4.93;100.00;68935.19;5072105;28;20067;-60
2024/02/25 09:23:59;;;;;;;8.07;4.40;;;;;;;4.99;100.00;68941.56;5070832;28;20050;-59
2024/02/25 09:26:27;;;;;;;6.80;3.95;;;;;;;5.06;100.00;68947.13;5069888;28;20538;-60
2024/02/25 09:29:03;;;;;;;7.97;4.07;;;;;;;5.05;100.00;68945.97;5071713;28;20052;-60
2024/02/25 09:31:31;;;;;;;6.90;4.40;;;;;;;5.12;100.00;68956.09;5072104;28;20128;-60
2024/02/25 09:34:00;;;;;;;7.32;4.75;;;;;;;5.11;100.00;68952.34;5071424;28;20057;-60
2024/02/25 09:36:29;;;;;;;6.35;3.90;;;;;;;5.13;100.00;68957.28;5070947;28;20059;-59
2024/02/25 09:38:58;;;;;;;6.07;3.60;;;;;;;5.10;100.00;68954.38;5071600;28;20111;-60
2024/02/25 09:41:28;;;;;;;8.00;4.47;;;;;;;5.10;100.00;68954.38;5073594;28;20044;-59
2024/02/25 09:44:02;;;;;;;7.47;4.63;;;;;;;5.10;100.00;68949.19;5073744;28;20037;-60
2024/02/25 09:46:33;;;;;;;7.75;4.65;;;;;;;5.14;100.00;68953.25;5073251;28;20078;-61
2024/02/25 09:49:03;;;;;;;7.03;4.60;;;;;;;5.16;100.00;68963.91;5070727;28;20048;-61
2024/02/25 09:51:33;;;;;;;8.23;3.88;;;;;;;5.18;100.00;68960.47;5070890;28;20040;-60
2024/02/25 09:54:01;;;;;;;7.78;3.85;;;;;;;5.20;100.00;68968.00;5070034;28;20549;-61
2024/02/25 09:56:31;;;;;;;9.07;3.63;;;;;;;5.22;100.00;68963.13;5070153;28;20105;-61
2024/02/25 09:58:59;;;;;;;5.68;2.85;;;;;;;5.22;100.00;68965.13;5072584;28;20134;-61
2024/02/25 10:01:28;;;;;;;4.70;2.42;;;;;;;5.18;100.00;68960.47;5072935;28;20102;-60
2024/02/25 10:03:57;;;;;;;5.53;2.20;;;;;;;5.16;100.00;68963.91;5070235;28;20044;-60
2024/02/25 10:06:26;;;;;;;5.22;2.20;;;;;;;5.08;100.00;68950.03;5069189;28;20048;-49
2024/02/25 10:08:54;;;;;;;3.50;1.85;;;;;;;5.13;100.00;68960.44;5067256;28;20051;-50
2024/02/25 10:11:23;;;;;;;3.92;1.77;;;;;;;5.19;100.00;68967.41;5069463;28;20142;-52
2024/02/25 10:13:51;;;;;;;3.97;1.58;;;;;;;5.17;100.00;68961.94;5068472;28;20056;-50
2024/02/25 10:16:22;;;;;;;3.83;2.00;;;;;;;5.16;100.00;68958.75;5068557;28;20053;-51
2024/02/25 10:18:51;;;;;;;4.55;2.08;;;;;;;5.21;100.00;68967.16;5068749;28;20517;-53
2024/02/25 10:21:21;;;;;;;5.45;2.28;;;;;;;5.25;100.00;68969.22;5069681;28;20046;-52
2024/02/25 10:23:54;;;;;;;3.42;1.95;;;;;;;5.27;100.00;68970.38;5068508;28;20055;-53
2024/02/25 10:26:24;;;;;;;4.60;2.25;;;;;;;5.39;100.00;68984.31;5071967;28;20068;-52
2024/02/25 10:29:04;;;;;;;5.00;2.35;;;;;;;5.40;100.00;68985.47;5067837;28;20139;-60
2024/02/25 10:31:32;;;;;;;4.50;2.10;;;;;;;5.41;100.00;68989.22;5071429;28;20380;-60
2024/02/25 10:34:02;;;;;;;7.88;2.67;;;;;;;5.44;100.00;68992.13;5073101;28;20472;-49
2024/02/25 10:36:33;;;;;;;4.22;2.47;;;;;;;5.45;100.00;68991.28;5069708;28;20101;-60
2024/02/25 10:39:02;;;;;;;10.43;3.47;;;;;;;5.50;100.00;68991.91;5069139;28;20609;-60
2024/02/25 10:41:31;;;;;;;6.05;3.33;;;;;;;5.52;100.00;68996.25;5070125;28;20826;-60
2024/02/25 10:44:03;;;;;;;5.57;3.20;;;;;;;5.51;100.00;69002.88;5068787;28;20048;-60
2024/02/25 10:46:38;;;;;;;6.13;3.15;;;;;;;5.55;100.00;69004.94;5069514;28;20479;-51
2024/02/25 10:49:09;;;;;;;6.57;3.80;;;;;;;5.55;100.00;69005.50;5068479;28;20048;-50
2024/02/25 10:51:39;;;;;;;6.80;4.18;;;;;;;5.63;100.00;69014.22;5071972;28;20487;-50
2024/02/25 10:54:11;;;;;;;7.22;4.22;;;;;;;5.70;100.00;69024.94;5071029;28;20044;-60
2024/02/25 10:56:41;;;;;;;;;;;;;;;5.75;100.00;69023.00;5070133;28;20128;-60
2024/02/25 10:59:10;;;;;;;7.70;4.05;;;;;;;5.80;100.00;69030.22;5070662;28;20022;-60
2024/02/25 11:01:39;;;;;;;8.63;4.13;;;;;;;5.86;100.00;69037.19;5070162;28;20048;-61
2024/02/25 11:04:08;;;;;;;6.55;4.13;;;;;;;5.91;100.00;69041.00;5069608;28;20048;-61
2024/02/25 11:06:39;;;;;;;8.20;5.07;;;;;;;5.84;100.00;69040.63;5069712;28;20105;-60
2024/02/25 11:09:10;;;;;;;10.20;5.18;;;;;;;5.89;100.00;69043.88;5068943;28;20045;-61
2024/02/25 11:11:38;;;;;;;10.60;5.10;;;;;;;5.92;100.00;69046.78;5069204;28;20119;-60
2024/02/25 11:14:06;;;;;;;8.23;5.00;;;;;;;5.89;100.00;69043.28;5068242;28;20496;-60
2024/02/25 11:16:43;;;;;;;9.13;5.38;;;;;;;5.92;100.00;69042.16;5071491;28;20067;-61
2024/02/25 11:19:15;;;;;;;8.73;5.82;;;;;;;5.95;100.00;69047.66;5073101;28;20078;-61
2024/02/25 11:21:52;;;;;;;8.13;5.20;;;;;;;5.98;100.00;69050.59;5073893;28;20117;-60
2024/02/25 11:24:50;;;;;;;10.25;5.43;;;;;;;5.98;100.00;69051.16;5076013;28;20040;-60
2024/02/25 11:27:18;;;;;;;7.80;5.00;;;;;;;6.01;100.00;69051.50;5070473;28;20488;-60
2024/02/25 11:29:47;;;;;;;9.13;5.22;;;;;;;6.03;100.00;69059.59;5073046;28;20048;-60
2024/02/25 11:32:34;;;;;;;7.57;4.68;;;;;;;6.08;100.00;69068.00;5073275;28;20052;-60
2024/02/25 11:35:04;;;;;;;9.32;5.72;;;;;;;6.13;100.00;69070.06;5072821;28;20087;-61
2024/02/25 11:37:33;;;;;;;10.55;6.57;;;;;;;6.17;100.00;69072.69;5072128;28;20052;-61
2024/02/25 11:40:04;;;;;;;10.60;6.55;;;;;;;6.20;100.00;69073.00;5072721;28;20072;-60
2024/02/25 11:42:32;;;;;;;9.63;6.18;;;;;;;6.28;100.00;69084.91;5071910;28;20531;-60